sensor_id;sensor_type;location;lat;lon;timestamp;pressure;altitude;pressure_sealevel;temperature;humidity
75549;BME280;64133;56.002;37.208;2023-12-20T00:04:30;97245.73;;;2.66;91.07
75549;BME280;64133;56.002;37.208;2023-12-20T00:09:35;97258.11;;;2.68;91.17
75549;BME280;64133;56.002;37.208;2023-12-20T00:14:40;97258.44;;;2.75;90.94
75549;BME280;64133;56.002;37.208;2023-12-20T00:19:45;97260.27;;;2.78;90.83
75549;BME280;64133;56.002;37.208;2023-12-20T00:24:50;97261.76;;;2.71;90.67
75549;BME280;64133;56.002;37.208;2023-12-20T00:29:55;97268.02;;;2.74;90.57
75549;BME280;64133;56.002;37.208;2023-12-20T00:35:00;97263.83;;;2.77;90.40
75549;BME280;64133;56.002;37.208;2023-12-20T00:40:10;97267.05;;;2.75;89.89
75549;BME280;64133;56.002;37.208;2023-12-20T00:45:15;97267.16;;;2.74;89.63
75549;BME280;64133;56.002;37.208;2023-12-20T00:50:20;97269.08;;;2.72;89.25
75549;BME280;64133;56.002;37.208;2023-12-20T00:55:25;97261.23;;;2.77;88.82
75549;BME280;64133;56.002;37.208;2023-12-20T01:00:30;97269.31;;;2.74;88.44
75549;BME280;64133;56.002;37.208;2023-12-20T01:05:35;97264.99;;;2.64;87.99
75549;BME280;64133;56.002;37.208;2023-12-20T01:10:40;97249.92;;;2.58;88.41
75549;BME280;64133;56.002;37.208;2023-12-20T01:15:45;97248.05;;;2.54;88.55
75549;BME280;64133;56.002;37.208;2023-12-20T01:20:50;97241.13;;;2.49;88.85
75549;BME280;64133;56.002;37.208;2023-12-20T01:25:55;97229.34;;;2.39;89.09
75549;BME280;64133;56.002;37.208;2023-12-20T01:31:00;97230.44;;;2.37;89.34
75549;BME280;64133;56.002;37.208;2023-12-20T01:36:06;97230.20;;;2.34;89.60
75549;BME280;64133;56.002;37.208;2023-12-20T01:41:11;97227.98;;;2.35;89.81
75549;BME280;64133;56.002;37.208;2023-12-20T01:51:36;97212.26;;;2.52;89.76
75549;BME280;64133;56.002;37.208;2023-12-20T01:56:41;97218.89;;;2.50;89.52
75549;BME280;64133;56.002;37.208;2023-12-20T02:01:46;97203.92;;;2.48;89.50
75549;BME280;64133;56.002;37.208;2023-12-20T02:06:51;97192.95;;;2.45;89.58
75549;BME280;64133;56.002;37.208;2023-12-20T02:11:56;97181.08;;;2.37;89.21
75549;BME280;64133;56.002;37.208;2023-12-20T02:17:01;97191.97;;;2.31;89.34
75549;BME280;64133;56.002;37.208;2023-12-20T02:22:11;97189.46;;;2.35;89.44
75549;BME280;64133;56.002;37.208;2023-12-20T02:27:17;97182.99;;;2.50;89.24
75549;BME280;64133;56.002;37.208;2023-12-20T02:32:21;97177.27;;;2.56;89.08
75549;BME280;64133;56.002;37.208;2023-12-20T02:37:26;97176.42;;;2.61;88.86
75549;BME280;64133;56.002;37.208;2023-12-20T02:42:31;97180.33;;;2.61;88.93
75549;BME280;64133;56.002;37.208;2023-12-20T02:47:36;97168.27;;;2.75;89.07
75549;BME280;64133;56.002;37.208;2023-12-20T02:52:42;97177.58;;;2.63;88.77
75549;BME280;64133;56.002;37.208;2023-12-20T02:57:46;97185.95;;;2.66;88.73
75549;BME280;64133;56.002;37.208;2023-12-20T03:02:51;97184.90;;;2.63;89.00
75549;BME280;64133;56.002;37.208;2023-12-20T03:07:56;97180.44;;;2.60;89.09
75549;BME280;64133;56.002;37.208;2023-12-20T03:13:01;97177.19;;;2.67;89.25
75549;BME280;64133;56.002;37.208;2023-12-20T03:18:07;97186.93;;;2.60;89.16
75549;BME280;64133;56.002;37.208;2023-12-20T03:23:12;97184.13;;;2.57;89.29
75549;BME280;64133;56.002;37.208;2023-12-20T03:28:17;97171.30;;;2.50;89.61
75549;BME280;64133;56.002;37.208;2023-12-20T03:33:22;97180.00;;;2.55;89.72
75549;BME280;64133;56.002;37.208;2023-12-20T03:38:27;97182.03;;;2.51;89.81
75549;BME280;64133;56.002;37.208;2023-12-20T03:43:32;97176.89;;;2.45;90.03
75549;BME280;64133;56.002;37.208;2023-12-20T03:48:37;97175.11;;;2.46;90.26
75549;BME280;64133;56.002;37.208;2023-12-20T03:53:41;97174.81;;;2.55;90.13
75549;BME280;64133;56.002;37.208;2023-12-20T03:58:47;97190.15;;;2.58;90.22
75549;BME280;64133;56.002;37.208;2023-12-20T04:03:52;97194.87;;;2.58;90.25
75549;BME280;64133;56.002;37.208;2023-12-20T04:08:57;97183.03;;;2.60;90.12
75549;BME280;64133;56.002;37.208;2023-12-20T04:14:02;97188.63;;;2.55;90.19
75549;BME280;64133;56.002;37.208;2023-12-20T04:19:07;97187.33;;;2.55;90.13
75549;BME280;64133;56.002;37.208;2023-12-20T04:24:12;97188.46;;;2.62;90.24
75549;BME280;64133;56.002;37.208;2023-12-20T04:29:18;97203.72;;;2.61;89.87
75549;BME280;64133;56.002;37.208;2023-12-20T04:34:27;97196.84;;;2.60;89.87
75549;BME280;64133;56.002;37.208;2023-12-20T04:39:34;97203.23;;;2.62;89.84
75549;BME280;64133;56.002;37.208;2023-12-20T04:44:40;97193.34;;;2.56;89.74
75549;BME280;64133;56.002;37.208;2023-12-20T04:49:45;97206.31;;;2.61;89.75
75549;BME280;64133;56.002;37.208;2023-12-20T04:54:50;97212.03;;;2.70;89.41
75549;BME280;64133;56.002;37.208;2023-12-20T04:59:55;97205.08;;;2.65;88.88
75549;BME280;64133;56.002;37.208;2023-12-20T05:05:01;97202.75;;;2.62;88.75
75549;BME280;64133;56.002;37.208;2023-12-20T05:10:08;97203.97;;;2.58;88.53
75549;BME280;64133;56.002;37.208;2023-12-20T05:15:13;97209.64;;;2.58;88.61
75549;BME280;64133;56.002;37.208;2023-12-20T05:20:18;97220.77;;;2.54;88.49
75549;BME280;64133;56.002;37.208;2023-12-20T05:30:38;97219.03;;;2.64;88.65
75549;BME280;64133;56.002;37.208;2023-12-20T05:35:43;97230.68;;;2.55;88.31
75549;BME280;64133;56.002;37.208;2023-12-20T05:40:50;97234.83;;;2.51;88.33
75549;BME280;64133;56.002;37.208;2023-12-20T05:45:55;97236.54;;;2.62;88.11
75549;BME280;64133;56.002;37.208;2023-12-20T05:51:00;97234.58;;;2.55;87.68
75549;BME280;64133;56.002;37.208;2023-12-20T05:56:08;97235.10;;;2.64;88.12
75549;BME280;64133;56.002;37.208;2023-12-20T06:01:15;97226.55;;;2.52;87.55
75549;BME280;64133;56.002;37.208;2023-12-20T06:06:22;97225.16;;;2.48;87.67
75549;BME280;64133;56.002;37.208;2023-12-20T06:11:26;97226.26;;;2.45;87.92
75549;BME280;64133;56.002;37.208;2023-12-20T06:16:31;97230.59;;;2.50;87.74
75549;BME280;64133;56.002;37.208;2023-12-20T06:21:36;97240.31;;;2.43;87.62
75549;BME280;64133;56.002;37.208;2023-12-20T06:26:41;97239.11;;;2.47;87.76
75549;BME280;64133;56.002;37.208;2023-12-20T06:31:46;97251.03;;;2.49;87.81
75549;BME280;64133;56.002;37.208;2023-12-20T06:36:51;97244.74;;;2.52;87.72
75549;BME280;64133;56.002;37.208;2023-12-20T06:41:56;97251.52;;;2.49;87.85
75549;BME280;64133;56.002;37.208;2023-12-20T06:47:02;97264.13;;;2.48;87.74
75549;BME280;64133;56.002;37.208;2023-12-20T06:52:07;97240.59;;;2.55;87.74
75549;BME280;64133;56.002;37.208;2023-12-20T06:57:12;97259.27;;;2.55;87.48
75549;BME280;64133;56.002;37.208;2023-12-20T07:02:17;97248.33;;;2.66;87.52
75549;BME280;64133;56.002;37.208;2023-12-20T07:07:22;97252.61;;;2.62;87.25
75549;BME280;64133;56.002;37.208;2023-12-20T07:12:28;97248.44;;;2.65;87.09
75549;BME280;64133;56.002;37.208;2023-12-20T07:17:36;97259.64;;;2.71;87.21
75549;BME280;64133;56.002;37.208;2023-12-20T07:22:41;97254.53;;;2.75;87.22
75549;BME280;64133;56.002;37.208;2023-12-20T07:27:46;97262.05;;;2.78;86.38
75549;BME280;64133;56.002;37.208;2023-12-20T07:32:51;97266.58;;;2.76;86.53
75549;BME280;64133;56.002;37.208;2023-12-20T07:38:00;97268.55;;;2.78;86.27
75549;BME280;64133;56.002;37.208;2023-12-20T07:43:02;97277.64;;;2.84;86.34
75549;BME280;64133;56.002;37.208;2023-12-20T07:48:08;97274.27;;;2.87;86.38
75549;BME280;64133;56.002;37.208;2023-12-20T07:53:13;97276.12;;;2.96;86.50
75549;BME280;64133;56.002;37.208;2023-12-20T07:58:19;97284.12;;;2.99;86.13
75549;BME280;64133;56.002;37.208;2023-12-20T08:03:24;97295.72;;;3.00;85.76
75549;BME280;64133;56.002;37.208;2023-12-20T08:08:29;97308.44;;;3.03;85.63
75549;BME280;64133;56.002;37.208;2023-12-20T08:13:34;97312.73;;;2.84;85.63
75549;BME280;64133;56.002;37.208;2023-12-20T08:18:40;97312.84;;;2.82;85.75
75549;BME280;64133;56.002;37.208;2023-12-20T08:23:45;97316.31;;;2.77;85.73
75549;BME280;64133;56.002;37.208;2023-12-20T08:28:50;97310.34;;;2.86;85.74
75549;BME280;64133;56.002;37.208;2023-12-20T08:33:55;97317.17;;;2.87;85.59
75549;BME280;64133;56.002;37.208;2023-12-20T08:39:00;97303.55;;;2.80;85.28
75549;BME280;64133;56.002;37.208;2023-12-20T08:44:07;97291.36;;;2.80;85.59
75549;BME280;64133;56.002;37.208;2023-12-20T08:49:13;97296.03;;;2.86;85.23
75549;BME280;64133;56.002;37.208;2023-12-20T08:54:18;97294.58;;;2.93;85.31
75549;BME280;64133;56.002;37.208;2023-12-20T08:59:23;97291.23;;;3.12;84.73
75549;BME280;64133;56.002;37.208;2023-12-20T09:04:28;97290.56;;;3.10;85.08
75549;BME280;64133;56.002;37.208;2023-12-20T09:09:33;97283.44;;;3.27;85.04
75549;BME280;64133;56.002;37.208;2023-12-20T09:14:38;97292.55;;;3.27;84.91
75549;BME280;64133;56.002;37.208;2023-12-20T09:19:43;97278.03;;;3.35;84.96
75549;BME280;64133;56.002;37.208;2023-12-20T09:24:49;97292.38;;;3.69;85.05
75549;BME280;64133;56.002;37.208;2023-12-20T09:29:54;97282.27;;;3.51;84.62
75549;BME280;64133;56.002;37.208;2023-12-20T09:34:59;97274.13;;;3.50;84.88
75549;BME280;64133;56.002;37.208;2023-12-20T09:45:20;97282.19;;;3.47;85.25
75549;BME280;64133;56.002;37.208;2023-12-20T09:50:25;97280.31;;;3.43;85.29
75549;BME280;64133;56.002;37.208;2023-12-20T09:55:30;97269.69;;;3.31;85.21
75549;BME280;64133;56.002;37.208;2023-12-20T10:00:35;97276.33;;;3.39;85.70
75549;BME280;64133;56.002;37.208;2023-12-20T10:05:41;97273.20;;;3.36;85.43
75549;BME280;64133;56.002;37.208;2023-12-20T10:10:46;97284.22;;;3.43;85.55
75549;BME280;64133;56.002;37.208;2023-12-20T10:21:07;97283.80;;;3.38;85.60
75549;BME280;64133;56.002;37.208;2023-12-20T10:26:11;97279.50;;;3.43;85.61
75549;BME280;64133;56.002;37.208;2023-12-20T10:31:28;97281.78;;;3.51;85.51
75549;BME280;64133;56.002;37.208;2023-12-20T10:36:33;97279.58;;;3.47;84.96
75549;BME280;64133;56.002;37.208;2023-12-20T10:41:38;97283.95;;;3.62;84.86
75549;BME280;64133;56.002;37.208;2023-12-20T10:46:49;97280.70;;;3.54;84.86
75549;BME280;64133;56.002;37.208;2023-12-20T10:51:55;97278.78;;;3.56;84.40
75549;BME280;64133;56.002;37.208;2023-12-20T10:57:00;97272.58;;;3.63;84.12
75549;BME280;64133;56.002;37.208;2023-12-20T11:02:05;97278.68;;;3.42;84.63
75549;BME280;64133;56.002;37.208;2023-12-20T11:07:15;97286.33;;;3.59;85.05
75549;BME280;64133;56.002;37.208;2023-12-20T11:12:20;97297.66;;;3.73;84.15
75549;BME280;64133;56.002;37.208;2023-12-20T11:17:24;97304.55;;;3.59;84.20
75549;BME280;64133;56.002;37.208;2023-12-20T11:22:31;97291.68;;;3.58;84.61
75549;BME280;64133;56.002;37.208;2023-12-20T11:27:41;97290.89;;;3.51;84.01
75549;BME280;64133;56.002;37.208;2023-12-20T11:32:49;97309.09;;;3.42;84.06
75549;BME280;64133;56.002;37.208;2023-12-20T11:43:11;97296.16;;;3.46;84.42
75549;BME280;64133;56.002;37.208;2023-12-20T11:48:18;97305.67;;;3.41;84.30
75549;BME280;64133;56.002;37.208;2023-12-20T11:53:30;97306.48;;;3.42;84.26
75549;BME280;64133;56.002;37.208;2023-12-20T11:58:35;97307.05;;;3.45;84.18
75549;BME280;64133;56.002;37.208;2023-12-20T12:03:41;97320.97;;;3.50;84.27
75549;BME280;64133;56.002;37.208;2023-12-20T12:08:46;97315.63;;;3.51;84.00
75549;BME280;64133;56.002;37.208;2023-12-20T12:13:51;97322.67;;;3.45;83.94
75549;BME280;64133;56.002;37.208;2023-12-20T12:18:59;97341.14;;;3.42;83.80
75549;BME280;64133;56.002;37.208;2023-12-20T12:24:14;97328.30;;;3.35;84.28
75549;BME280;64133;56.002;37.208;2023-12-20T12:29:22;97325.75;;;3.45;84.39
75549;BME280;64133;56.002;37.208;2023-12-20T12:34:28;97305.27;;;3.31;83.96
75549;BME280;64133;56.002;37.208;2023-12-20T12:39:33;97334.30;;;3.41;84.47
75549;BME280;64133;56.002;37.208;2023-12-20T12:44:38;97343.00;;;3.31;84.21
75549;BME280;64133;56.002;37.208;2023-12-20T12:49:43;97354.45;;;3.34;83.95
75549;BME280;64133;56.002;37.208;2023-12-20T12:54:51;97349.72;;;3.02;84.59
75549;BME280;64133;56.002;37.208;2023-12-20T12:59:54;97350.25;;;2.91;84.66
75549;BME280;64133;56.002;37.208;2023-12-20T13:04:59;97344.04;;;2.82;85.01
75549;BME280;64133;56.002;37.208;2023-12-20T13:10:05;97338.27;;;2.78;85.08
75549;BME280;64133;56.002;37.208;2023-12-20T13:15:10;97328.43;;;2.67;85.42
75549;BME280;64133;56.002;37.208;2023-12-20T13:20:17;97322.84;;;2.71;85.43
75549;BME280;64133;56.002;37.208;2023-12-20T13:25:22;97310.14;;;2.63;85.35
75549;BME280;64133;56.002;37.208;2023-12-20T13:30:28;97310.33;;;2.50;85.59
75549;BME280;64133;56.002;37.208;2023-12-20T13:35:33;97314.08;;;2.51;85.54
75549;BME280;64133;56.002;37.208;2023-12-20T13:40:38;97320.00;;;2.48;85.60
75549;BME280;64133;56.002;37.208;2023-12-20T13:45:44;97323.35;;;2.44;85.57
75549;BME280;64133;56.002;37.208;2023-12-20T13:50:49;97327.63;;;2.40;85.66
75549;BME280;64133;56.002;37.208;2023-12-20T13:55:54;97338.02;;;2.34;85.55
75549;BME280;64133;56.002;37.208;2023-12-20T14:00:59;97342.63;;;2.36;86.03
75549;BME280;64133;56.002;37.208;2023-12-20T14:06:05;97353.61;;;2.34;86.06
75549;BME280;64133;56.002;37.208;2023-12-20T14:11:10;97358.94;;;2.33;85.75
75549;BME280;64133;56.002;37.208;2023-12-20T14:16:15;97362.94;;;2.37;85.20
75549;BME280;64133;56.002;37.208;2023-12-20T14:21:20;97373.63;;;2.22;85.44
75549;BME280;64133;56.002;37.208;2023-12-20T14:26:26;97383.43;;;2.19;85.55
75549;BME280;64133;56.002;37.208;2023-12-20T14:31:31;97392.73;;;2.21;85.90
75549;BME280;64133;56.002;37.208;2023-12-20T14:37:09;97393.05;;;2.34;85.76
75549;BME280;64133;56.002;37.208;2023-12-20T14:42:14;97398.41;;;2.26;85.51
75549;BME280;64133;56.002;37.208;2023-12-20T14:47:19;97395.33;;;2.21;85.84
75549;BME280;64133;56.002;37.208;2023-12-20T14:52:24;97396.09;;;2.07;85.64
75549;BME280;64133;56.002;37.208;2023-12-20T14:57:30;97395.95;;;2.08;85.78
75549;BME280;64133;56.002;37.208;2023-12-20T15:02:35;97403.53;;;2.06;85.85
75549;BME280;64133;56.002;37.208;2023-12-20T15:07:40;97421.23;;;2.06;85.81
75549;BME280;64133;56.002;37.208;2023-12-20T15:12:46;97435.16;;;2.11;85.93
75549;BME280;64133;56.002;37.208;2023-12-20T15:17:51;97434.44;;;2.14;85.81
75549;BME280;64133;56.002;37.208;2023-12-20T15:22:56;97426.53;;;2.10;85.63
75549;BME280;64133;56.002;37.208;2023-12-20T15:28:02;97434.22;;;2.06;85.41
75549;BME280;64133;56.002;37.208;2023-12-20T15:33:07;97435.62;;;2.10;85.63
75549;BME280;64133;56.002;37.208;2023-12-20T15:38:12;97431.23;;;2.28;85.64
75549;BME280;64133;56.002;37.208;2023-12-20T15:43:17;97440.55;;;2.24;85.39
75549;BME280;64133;56.002;37.208;2023-12-20T15:48:28;97428.11;;;2.39;84.88
75549;BME280;64133;56.002;37.208;2023-12-20T15:53:30;97428.69;;;2.43;84.99
75549;BME280;64133;56.002;37.208;2023-12-20T15:58:40;97437.20;;;2.39;84.74
75549;BME280;64133;56.002;37.208;2023-12-20T16:03:44;97452.22;;;2.30;84.54
75549;BME280;64133;56.002;37.208;2023-12-20T16:08:54;97456.75;;;2.22;83.44
75549;BME280;64133;56.002;37.208;2023-12-20T16:13:59;97469.25;;;2.23;82.20
75549;BME280;64133;56.002;37.208;2023-12-20T16:19:04;97476.90;;;2.30;82.06
75549;BME280;64133;56.002;37.208;2023-12-20T16:24:09;97482.25;;;2.23;81.50
75549;BME280;64133;56.002;37.208;2023-12-20T16:29:14;97484.46;;;2.22;81.32
75549;BME280;64133;56.002;37.208;2023-12-20T16:34:20;97491.70;;;2.18;81.27
75549;BME280;64133;56.002;37.208;2023-12-20T16:39:25;97492.99;;;2.18;81.50
75549;BME280;64133;56.002;37.208;2023-12-20T16:44:33;97499.72;;;2.26;81.31
75549;BME280;64133;56.002;37.208;2023-12-20T16:49:38;97497.83;;;2.12;81.04
75549;BME280;64133;56.002;37.208;2023-12-20T16:55:04;97493.11;;;2.11;81.24
75549;BME280;64133;56.002;37.208;2023-12-20T17:00:44;97492.41;;;2.15;81.43
75549;BME280;64133;56.002;37.208;2023-12-20T17:06:02;97493.59;;;2.05;81.10
75549;BME280;64133;56.002;37.208;2023-12-20T17:16:32;97397.66;;;1.64;80.90
75549;BME280;64133;56.002;37.208;2023-12-20T17:28:24;97466.79;;;1.99;80.43
75549;BME280;64133;56.002;37.208;2023-12-20T17:33:30;97470.94;;;1.96;80.65
75549;BME280;64133;56.002;37.208;2023-12-20T17:39:10;97472.81;;;1.94;80.53
75549;BME280;64133;56.002;37.208;2023-12-20T17:44:55;97470.83;;;1.92;80.07
75549;BME280;64133;56.002;37.208;2023-12-20T17:55:32;97470.34;;;1.98;79.34
75549;BME280;64133;56.002;37.208;2023-12-20T18:00:37;97475.53;;;1.98;79.32
75549;BME280;64133;56.002;37.208;2023-12-20T18:05:42;97480.26;;;1.93;78.80
75549;BME280;64133;56.002;37.208;2023-12-20T18:10:47;97484.84;;;1.95;78.95
75549;BME280;64133;56.002;37.208;2023-12-20T18:15:53;97487.46;;;2.00;78.58
75549;BME280;64133;56.002;37.208;2023-12-20T18:20:58;97476.95;;;2.02;78.63
75549;BME280;64133;56.002;37.208;2023-12-20T18:26:04;97474.24;;;1.92;78.66
75549;BME280;64133;56.002;37.208;2023-12-20T18:31:09;97474.12;;;1.88;78.46
75549;BME280;64133;56.002;37.208;2023-12-20T18:41:43;97393.77;;;1.47;78.41
75549;BME280;64133;56.002;37.208;2023-12-20T18:46:49;97481.91;;;2.05;78.51
75549;BME280;64133;56.002;37.208;2023-12-20T18:51:54;97478.81;;;2.00;78.25
75549;BME280;64133;56.002;37.208;2023-12-20T18:56:59;97470.56;;;2.12;78.32
75549;BME280;64133;56.002;37.208;2023-12-20T19:02:05;97476.34;;;2.15;78.45
75549;BME280;64133;56.002;37.208;2023-12-20T19:07:10;97474.92;;;2.22;78.24
75549;BME280;64133;56.002;37.208;2023-12-20T19:12:15;97470.80;;;2.14;78.31
75549;BME280;64133;56.002;37.208;2023-12-20T19:17:21;97473.30;;;1.88;78.13
75549;BME280;64133;56.002;37.208;2023-12-20T19:27:43;97477.30;;;1.97;77.96
75549;BME280;64133;56.002;37.208;2023-12-20T19:32:50;97479.77;;;1.99;77.76
75549;BME280;64133;56.002;37.208;2023-12-20T19:37:55;97488.27;;;2.12;77.74
75549;BME280;64133;56.002;37.208;2023-12-20T19:43:00;97476.23;;;2.22;77.87
75549;BME280;64133;56.002;37.208;2023-12-20T19:48:07;97478.56;;;2.25;77.50
75549;BME280;64133;56.002;37.208;2023-12-20T19:53:13;97470.30;;;2.32;77.58
75549;BME280;64133;56.002;37.208;2023-12-20T19:58:21;97473.25;;;2.33;77.25
75549;BME280;64133;56.002;37.208;2023-12-20T20:03:26;97465.93;;;2.32;77.23
75549;BME280;64133;56.002;37.208;2023-12-20T20:08:31;97459.79;;;2.22;77.09
75549;BME280;64133;56.002;37.208;2023-12-20T20:13:37;97459.33;;;2.28;77.02
75549;BME280;64133;56.002;37.208;2023-12-20T20:18:42;97455.88;;;2.33;76.88
75549;BME280;64133;56.002;37.208;2023-12-20T20:23:47;97460.38;;;2.37;76.99
75549;BME280;64133;56.002;37.208;2023-12-20T20:28:52;97446.20;;;2.30;76.80
75549;BME280;64133;56.002;37.208;2023-12-20T20:33:57;97443.28;;;2.23;77.60
75549;BME280;64133;56.002;37.208;2023-12-20T20:39:03;97445.86;;;2.29;77.94
75549;BME280;64133;56.002;37.208;2023-12-20T20:44:08;97439.41;;;1.95;77.97
75549;BME280;64133;56.002;37.208;2023-12-20T20:49:13;97434.22;;;1.95;78.48
75549;BME280;64133;56.002;37.208;2023-12-20T20:54:18;97421.36;;;1.82;78.97
75549;BME280;64133;56.002;37.208;2023-12-20T20:59:23;97397.78;;;1.80;79.22
75549;BME280;64133;56.002;37.208;2023-12-20T21:04:29;97412.05;;;1.85;79.29
75549;BME280;64133;56.002;37.208;2023-12-20T21:09:34;97400.95;;;1.78;79.68
75549;BME280;64133;56.002;37.208;2023-12-20T21:14:39;97409.47;;;1.63;80.10
75549;BME280;64133;56.002;37.208;2023-12-20T21:19:44;97399.55;;;1.68;80.49
75549;BME280;64133;56.002;37.208;2023-12-20T21:24:49;97400.52;;;1.61;80.47
75549;BME280;64133;56.002;37.208;2023-12-20T21:29:54;97388.82;;;1.56;80.62
75549;BME280;64133;56.002;37.208;2023-12-20T21:34:59;97368.27;;;1.92;80.67
75549;BME280;64133;56.002;37.208;2023-12-20T21:45:19;97361.03;;;2.07;79.92
75549;BME280;64133;56.002;37.208;2023-12-20T21:50:24;97340.52;;;1.98;79.75
75549;BME280;64133;56.002;37.208;2023-12-20T21:55:30;97321.61;;;2.34;80.28
75549;BME280;64133;56.002;37.208;2023-12-20T22:00:35;97311.83;;;2.05;79.86
75549;BME280;64133;56.002;37.208;2023-12-20T22:05:41;97293.45;;;2.23;80.17
75549;BME280;64133;56.002;37.208;2023-12-20T22:10:45;97287.05;;;2.28;78.98
75549;BME280;64133;56.002;37.208;2023-12-20T22:15:50;97277.96;;;2.01;81.05
75549;BME280;64133;56.002;37.208;2023-12-20T22:20:55;97258.35;;;2.03;80.24
75549;BME280;64133;56.002;37.208;2023-12-20T22:26:02;97257.73;;;2.10;81.04
75549;BME280;64133;56.002;37.208;2023-12-20T22:31:09;97252.09;;;2.53;80.21
75549;BME280;64133;56.002;37.208;2023-12-20T22:36:14;97253.00;;;2.36;79.67
75549;BME280;64133;56.002;37.208;2023-12-20T22:41:19;97246.89;;;2.32;80.55
75549;BME280;64133;56.002;37.208;2023-12-20T22:46:24;97242.95;;;2.37;79.82
75549;BME280;64133;56.002;37.208;2023-12-20T22:51:30;97236.50;;;2.53;80.35
75549;BME280;64133;56.002;37.208;2023-12-20T22:56:35;97228.56;;;2.54;80.00
75549;BME280;64133;56.002;37.208;2023-12-20T23:01:40;97221.02;;;2.51;79.82
75549;BME280;64133;56.002;37.208;2023-12-20T23:06:45;97226.23;;;2.66;79.46
75549;BME280;64133;56.002;37.208;2023-12-20T23:11:50;97210.75;;;2.65;78.91
75549;BME280;64133;56.002;37.208;2023-12-20T23:16:55;97205.67;;;2.33;78.98
75549;BME280;64133;56.002;37.208;2023-12-20T23:22:00;97206.45;;;3.00;79.83
75549;BME280;64133;56.002;37.208;2023-12-20T23:27:06;97200.98;;;3.03;78.45
75549;BME280;64133;56.002;37.208;2023-12-20T23:32:11;97200.00;;;2.94;79.17
75549;BME280;64133;56.002;37.208;2023-12-20T23:37:16;97188.39;;;2.37;78.70
75549;BME280;64133;56.002;37.208;2023-12-20T23:42:21;97179.64;;;2.38;80.13
75549;BME280;64133;56.002;37.208;2023-12-20T23:47:26;97173.17;;;2.54;80.33
75549;BME280;64133;56.002;37.208;2023-12-20T23:52:31;97169.00;;;2.72;80.44
75549;BME280;64133;56.002;37.208;2023-12-20T23:57:36;97166.37;;;2.62;80.92
